Terminal Aerodrome Forecast
Issued by NWS

Home | Current Version | Previous Version | Text Only | Print | Product List | Glossary On
Versions: 1 2 3 4 5 6 7 8 9 10 11 12
000
FTUS42 TJSJ 281100
TAFNCM
TAF
TNCM 281139Z 2812/2912 08010KT P6SM VCSH FEW015 SCT020 BKN040
      TEMPO 2812/2814 BKN018 BKN025
     FM281500 08012KT P6SM VCSH SCT018 BKN040
     FM282300 10008KT P6SM VCSH SCT020 SCT040=

USA.gov is the U.S. government's official web portal to all federal, state and local government web resources and services.